sensor_id;sensor_type;location;lat;lon;timestamp;P1;durP1;ratioP1;P2;durP2;ratioP2
46755;SDS011;32506;52.826;-1.192;2023-07-20T00:01:17;2.10;;;0.93;;
46755;SDS011;32506;52.826;-1.192;2023-07-20T00:03:43;2.53;;;1.10;;
46755;SDS011;32506;52.826;-1.192;2023-07-20T00:06:08;2.58;;;1.00;;
46755;SDS011;32506;52.826;-1.192;2023-07-20T00:08:34;2.80;;;1.33;;
46755;SDS011;32506;52.826;-1.192;2023-07-20T00:10:59;2.35;;;0.85;;
46755;SDS011;32506;52.826;-1.192;2023-07-20T00:13:24;1.67;;;0.90;;
46755;SDS011;32506;52.826;-1.192;2023-07-20T00:15:51;2.05;;;1.10;;
46755;SDS011;32506;52.826;-1.192;2023-07-20T00:18:16;2.38;;;1.00;;
46755;SDS011;32506;52.826;-1.192;2023-07-20T00:20:42;2.47;;;1.00;;
46755;SDS011;32506;52.826;-1.192;2023-07-20T00:23:07;2.13;;;1.15;;
46755;SDS011;32506;52.826;-1.192;2023-07-20T00:25:33;2.47;;;1.10;;
46755;SDS011;32506;52.826;-1.192;2023-07-20T00:28:01;3.67;;;1.83;;
46755;SDS011;32506;52.826;-1.192;2023-07-20T00:30:27;3.28;;;1.38;;
46755;SDS011;32506;52.826;-1.192;2023-07-20T00:32:52;2.95;;;1.40;;
46755;SDS011;32506;52.826;-1.192;2023-07-20T00:35:18;2.97;;;1.23;;
46755;SDS011;32506;52.826;-1.192;2023-07-20T00:37:43;2.60;;;1.08;;
46755;SDS011;32506;52.826;-1.192;2023-07-20T00:40:09;2.90;;;1.48;;
46755;SDS011;32506;52.826;-1.192;2023-07-20T00:42:35;2.60;;;1.23;;
46755;SDS011;32506;52.826;-1.192;2023-07-20T00:45:00;2.22;;;1.35;;
46755;SDS011;32506;52.826;-1.192;2023-07-20T00:47:43;2.83;;;1.45;;
46755;SDS011;32506;52.826;-1.192;2023-07-20T00:50:09;4.38;;;1.60;;
46755;SDS011;32506;52.826;-1.192;2023-07-20T00:52:35;2.58;;;1.30;;
46755;SDS011;32506;52.826;-1.192;2023-07-20T00:55:04;3.25;;;1.45;;
46755;SDS011;32506;52.826;-1.192;2023-07-20T00:57:31;2.38;;;1.25;;
46755;SDS011;32506;52.826;-1.192;2023-07-20T00:59:57;2.25;;;1.17;;
46755;SDS011;32506;52.826;-1.192;2023-07-20T01:02:23;2.85;;;1.25;;
46755;SDS011;32506;52.826;-1.192;2023-07-20T01:04:49;3.47;;;1.30;;
46755;SDS011;32506;52.826;-1.192;2023-07-20T01:07:25;2.63;;;1.20;;
46755;SDS011;32506;52.826;-1.192;2023-07-20T01:10:03;4.47;;;1.48;;
46755;SDS011;32506;52.826;-1.192;2023-07-20T01:12:40;1.95;;;1.02;;
46755;SDS011;32506;52.826;-1.192;2023-07-20T01:15:12;3.10;;;1.50;;
46755;SDS011;32506;52.826;-1.192;2023-07-20T01:17:38;3.05;;;1.25;;
46755;SDS011;32506;52.826;-1.192;2023-07-20T01:20:03;4.38;;;1.40;;
46755;SDS011;32506;52.826;-1.192;2023-07-20T01:30:50;2.75;;;1.27;;
46755;SDS011;32506;52.826;-1.192;2023-07-20T01:33:24;4.45;;;1.25;;
46755;SDS011;32506;52.826;-1.192;2023-07-20T01:36:00;2.55;;;1.20;;
46755;SDS011;32506;52.826;-1.192;2023-07-20T01:38:27;1.80;;;0.95;;
46755;SDS011;32506;52.826;-1.192;2023-07-20T01:40:53;2.97;;;1.20;;
46755;SDS011;32506;52.826;-1.192;2023-07-20T01:43:20;1.92;;;1.30;;
46755;SDS011;32506;52.826;-1.192;2023-07-20T01:45:45;2.85;;;1.45;;
46755;SDS011;32506;52.826;-1.192;2023-07-20T01:48:10;1.83;;;0.93;;
46755;SDS011;32506;52.826;-1.192;2023-07-20T01:50:36;2.13;;;1.30;;
46755;SDS011;32506;52.826;-1.192;2023-07-20T01:53:02;2.28;;;1.20;;
46755;SDS011;32506;52.826;-1.192;2023-07-20T01:55:27;1.92;;;1.05;;
46755;SDS011;32506;52.826;-1.192;2023-07-20T01:57:54;3.92;;;1.10;;
46755;SDS011;32506;52.826;-1.192;2023-07-20T02:00:20;2.30;;;1.40;;
46755;SDS011;32506;52.826;-1.192;2023-07-20T02:02:46;2.13;;;1.05;;
46755;SDS011;32506;52.826;-1.192;2023-07-20T02:05:12;1.63;;;0.95;;
46755;SDS011;32506;52.826;-1.192;2023-07-20T02:07:37;1.65;;;0.82;;
46755;SDS011;32506;52.826;-1.192;2023-07-20T02:10:03;3.00;;;1.00;;
46755;SDS011;32506;52.826;-1.192;2023-07-20T02:12:29;2.33;;;0.95;;
46755;SDS011;32506;52.826;-1.192;2023-07-20T02:14:54;1.95;;;1.10;;
46755;SDS011;32506;52.826;-1.192;2023-07-20T02:17:19;2.35;;;1.13;;
46755;SDS011;32506;52.826;-1.192;2023-07-20T02:19:45;3.45;;;1.08;;
46755;SDS011;32506;52.826;-1.192;2023-07-20T02:22:11;2.92;;;1.02;;
46755;SDS011;32506;52.826;-1.192;2023-07-20T02:24:37;2.42;;;1.10;;
46755;SDS011;32506;52.826;-1.192;2023-07-20T02:27:02;1.77;;;0.93;;
46755;SDS011;32506;52.826;-1.192;2023-07-20T02:29:28;1.95;;;1.10;;
46755;SDS011;32506;52.826;-1.192;2023-07-20T02:31:53;2.35;;;1.10;;
46755;SDS011;32506;52.826;-1.192;2023-07-20T02:34:19;4.32;;;2.13;;
46755;SDS011;32506;52.826;-1.192;2023-07-20T02:36:44;2.97;;;1.23;;
46755;SDS011;32506;52.826;-1.192;2023-07-20T02:39:13;2.20;;;1.17;;
46755;SDS011;32506;52.826;-1.192;2023-07-20T02:41:38;3.50;;;1.92;;
46755;SDS011;32506;52.826;-1.192;2023-07-20T02:44:04;3.33;;;1.83;;
46755;SDS011;32506;52.826;-1.192;2023-07-20T02:46:29;5.47;;;2.22;;
46755;SDS011;32506;52.826;-1.192;2023-07-20T02:48:55;3.63;;;2.25;;
46755;SDS011;32506;52.826;-1.192;2023-07-20T02:51:21;5.38;;;3.28;;
46755;SDS011;32506;52.826;-1.192;2023-07-20T02:53:46;3.80;;;2.10;;
46755;SDS011;32506;52.826;-1.192;2023-07-20T02:56:12;5.50;;;2.60;;
46755;SDS011;32506;52.826;-1.192;2023-07-20T02:58:39;4.57;;;2.70;;
46755;SDS011;32506;52.826;-1.192;2023-07-20T03:01:08;4.20;;;2.47;;
46755;SDS011;32506;52.826;-1.192;2023-07-20T03:03:35;5.15;;;2.53;;
46755;SDS011;32506;52.826;-1.192;2023-07-20T03:06:04;6.35;;;2.63;;
46755;SDS011;32506;52.826;-1.192;2023-07-20T03:08:30;5.03;;;2.45;;
46755;SDS011;32506;52.826;-1.192;2023-07-20T03:10:56;4.43;;;2.63;;
46755;SDS011;32506;52.826;-1.192;2023-07-20T03:13:21;5.53;;;2.85;;
46755;SDS011;32506;52.826;-1.192;2023-07-20T03:15:49;4.68;;;2.95;;
46755;SDS011;32506;52.826;-1.192;2023-07-20T03:18:14;5.55;;;3.42;;
46755;SDS011;32506;52.826;-1.192;2023-07-20T03:20:39;5.35;;;2.38;;
46755;SDS011;32506;52.826;-1.192;2023-07-20T03:23:05;3.55;;;2.47;;
46755;SDS011;32506;52.826;-1.192;2023-07-20T03:25:31;7.72;;;2.95;;
46755;SDS011;32506;52.826;-1.192;2023-07-20T03:27:56;5.18;;;3.47;;
46755;SDS011;32506;52.826;-1.192;2023-07-20T03:30:21;3.67;;;2.22;;
46755;SDS011;32506;52.826;-1.192;2023-07-20T03:32:48;4.68;;;2.50;;
46755;SDS011;32506;52.826;-1.192;2023-07-20T03:35:13;5.20;;;2.55;;
46755;SDS011;32506;52.826;-1.192;2023-07-20T03:37:40;5.55;;;2.45;;
46755;SDS011;32506;52.826;-1.192;2023-07-20T03:40:06;5.25;;;2.33;;
46755;SDS011;32506;52.826;-1.192;2023-07-20T03:42:32;3.70;;;2.03;;
46755;SDS011;32506;52.826;-1.192;2023-07-20T03:44:58;4.97;;;2.60;;
46755;SDS011;32506;52.826;-1.192;2023-07-20T03:47:23;3.67;;;1.92;;
46755;SDS011;32506;52.826;-1.192;2023-07-20T03:49:49;4.07;;;2.28;;
46755;SDS011;32506;52.826;-1.192;2023-07-20T03:52:14;3.75;;;2.13;;
46755;SDS011;32506;52.826;-1.192;2023-07-20T03:54:40;5.00;;;2.40;;
46755;SDS011;32506;52.826;-1.192;2023-07-20T03:57:05;4.70;;;2.40;;
46755;SDS011;32506;52.826;-1.192;2023-07-20T03:59:31;3.10;;;1.67;;
46755;SDS011;32506;52.826;-1.192;2023-07-20T04:01:56;3.90;;;2.25;;
46755;SDS011;32506;52.826;-1.192;2023-07-20T04:04:22;4.10;;;2.38;;
46755;SDS011;32506;52.826;-1.192;2023-07-20T04:06:47;3.97;;;1.85;;
46755;SDS011;32506;52.826;-1.192;2023-07-20T04:09:12;3.80;;;2.05;;
46755;SDS011;32506;52.826;-1.192;2023-07-20T04:11:38;3.83;;;2.20;;
46755;SDS011;32506;52.826;-1.192;2023-07-20T04:14:04;3.78;;;2.20;;
46755;SDS011;32506;52.826;-1.192;2023-07-20T04:16:29;3.63;;;2.35;;
46755;SDS011;32506;52.826;-1.192;2023-07-20T04:18:55;4.00;;;2.35;;
46755;SDS011;32506;52.826;-1.192;2023-07-20T04:21:21;3.58;;;2.15;;
46755;SDS011;32506;52.826;-1.192;2023-07-20T04:23:47;5.38;;;2.38;;
46755;SDS011;32506;52.826;-1.192;2023-07-20T04:26:12;4.07;;;2.33;;
46755;SDS011;32506;52.826;-1.192;2023-07-20T04:28:40;3.75;;;2.20;;
46755;SDS011;32506;52.826;-1.192;2023-07-20T04:33:38;3.90;;;2.78;;
46755;SDS011;32506;52.826;-1.192;2023-07-20T04:36:04;4.68;;;2.40;;
46755;SDS011;32506;52.826;-1.192;2023-07-20T04:38:30;2.35;;;1.80;;
46755;SDS011;32506;52.826;-1.192;2023-07-20T04:40:55;2.92;;;1.55;;
46755;SDS011;32506;52.826;-1.192;2023-07-20T04:43:21;3.70;;;2.35;;
46755;SDS011;32506;52.826;-1.192;2023-07-20T04:45:47;5.72;;;2.38;;
46755;SDS011;32506;52.826;-1.192;2023-07-20T04:48:16;3.97;;;1.98;;
46755;SDS011;32506;52.826;-1.192;2023-07-20T04:50:43;3.38;;;1.95;;
46755;SDS011;32506;52.826;-1.192;2023-07-20T04:53:10;4.20;;;2.10;;
46755;SDS011;32506;52.826;-1.192;2023-07-20T04:55:39;4.10;;;1.85;;
46755;SDS011;32506;52.826;-1.192;2023-07-20T04:58:05;4.35;;;2.28;;
46755;SDS011;32506;52.826;-1.192;2023-07-20T05:00:34;2.75;;;1.65;;
46755;SDS011;32506;52.826;-1.192;2023-07-20T05:03:00;3.55;;;2.30;;
46755;SDS011;32506;52.826;-1.192;2023-07-20T05:05:25;2.88;;;2.00;;
46755;SDS011;32506;52.826;-1.192;2023-07-20T05:07:51;5.18;;;2.30;;
46755;SDS011;32506;52.826;-1.192;2023-07-20T05:10:17;3.47;;;2.10;;
46755;SDS011;32506;52.826;-1.192;2023-07-20T05:12:42;5.00;;;2.10;;
46755;SDS011;32506;52.826;-1.192;2023-07-20T05:15:08;3.03;;;1.88;;
46755;SDS011;32506;52.826;-1.192;2023-07-20T05:17:34;4.00;;;2.05;;
46755;SDS011;32506;52.826;-1.192;2023-07-20T05:19:59;3.50;;;2.10;;
46755;SDS011;32506;52.826;-1.192;2023-07-20T05:22:25;3.35;;;1.80;;
46755;SDS011;32506;52.826;-1.192;2023-07-20T05:24:50;3.63;;;2.05;;
46755;SDS011;32506;52.826;-1.192;2023-07-20T05:27:16;3.95;;;1.92;;
46755;SDS011;32506;52.826;-1.192;2023-07-20T05:29:45;4.00;;;2.28;;
46755;SDS011;32506;52.826;-1.192;2023-07-20T05:32:11;3.03;;;1.60;;
46755;SDS011;32506;52.826;-1.192;2023-07-20T05:34:36;3.92;;;2.00;;
46755;SDS011;32506;52.826;-1.192;2023-07-20T05:37:02;2.72;;;1.80;;
46755;SDS011;32506;52.826;-1.192;2023-07-20T05:39:27;3.40;;;1.98;;
46755;SDS011;32506;52.826;-1.192;2023-07-20T05:41:52;3.78;;;1.95;;
46755;SDS011;32506;52.826;-1.192;2023-07-20T05:44:18;3.08;;;2.00;;
46755;SDS011;32506;52.826;-1.192;2023-07-20T05:46:43;2.85;;;1.88;;
46755;SDS011;32506;52.826;-1.192;2023-07-20T05:49:09;5.03;;;2.10;;
46755;SDS011;32506;52.826;-1.192;2023-07-20T05:51:35;4.32;;;1.90;;
46755;SDS011;32506;52.826;-1.192;2023-07-20T05:54:00;5.10;;;2.25;;
46755;SDS011;32506;52.826;-1.192;2023-07-20T05:56:26;2.70;;;1.80;;
46755;SDS011;32506;52.826;-1.192;2023-07-20T05:58:51;2.92;;;1.92;;
46755;SDS011;32506;52.826;-1.192;2023-07-20T06:01:16;4.00;;;2.35;;
46755;SDS011;32506;52.826;-1.192;2023-07-20T06:03:44;3.95;;;2.20;;
46755;SDS011;32506;52.826;-1.192;2023-07-20T06:06:09;4.80;;;2.22;;
46755;SDS011;32506;52.826;-1.192;2023-07-20T06:08:36;3.97;;;2.00;;
46755;SDS011;32506;52.826;-1.192;2023-07-20T06:11:02;4.10;;;2.53;;
46755;SDS011;32506;52.826;-1.192;2023-07-20T06:13:27;4.05;;;2.30;;
46755;SDS011;32506;52.826;-1.192;2023-07-20T06:15:53;4.10;;;2.17;;
46755;SDS011;32506;52.826;-1.192;2023-07-20T06:18:18;6.80;;;2.05;;
46755;SDS011;32506;52.826;-1.192;2023-07-20T06:20:49;3.65;;;2.50;;
46755;SDS011;32506;52.826;-1.192;2023-07-20T06:23:16;4.57;;;2.40;;
46755;SDS011;32506;52.826;-1.192;2023-07-20T06:25:41;6.82;;;2.30;;
46755;SDS011;32506;52.826;-1.192;2023-07-20T06:28:07;5.47;;;2.83;;
46755;SDS011;32506;52.826;-1.192;2023-07-20T06:30:33;2.60;;;1.83;;
46755;SDS011;32506;52.826;-1.192;2023-07-20T06:32:59;4.30;;;2.40;;
46755;SDS011;32506;52.826;-1.192;2023-07-20T06:35:25;4.68;;;1.90;;
46755;SDS011;32506;52.826;-1.192;2023-07-20T06:37:51;5.32;;;2.58;;
46755;SDS011;32506;52.826;-1.192;2023-07-20T06:40:17;4.68;;;2.45;;
46755;SDS011;32506;52.826;-1.192;2023-07-20T06:42:42;3.67;;;2.13;;
46755;SDS011;32506;52.826;-1.192;2023-07-20T06:45:08;3.90;;;2.17;;
46755;SDS011;32506;52.826;-1.192;2023-07-20T06:47:34;6.43;;;2.22;;
46755;SDS011;32506;52.826;-1.192;2023-07-20T06:49:59;4.38;;;2.53;;
46755;SDS011;32506;52.826;-1.192;2023-07-20T06:52:25;4.68;;;2.70;;
46755;SDS011;32506;52.826;-1.192;2023-07-20T06:54:50;4.43;;;2.38;;
46755;SDS011;32506;52.826;-1.192;2023-07-20T06:57:16;4.70;;;2.15;;
46755;SDS011;32506;52.826;-1.192;2023-07-20T06:59:41;6.70;;;2.70;;
46755;SDS011;32506;52.826;-1.192;2023-07-20T07:02:07;5.47;;;2.63;;
46755;SDS011;32506;52.826;-1.192;2023-07-20T07:04:33;4.22;;;2.50;;
46755;SDS011;32506;52.826;-1.192;2023-07-20T07:06:59;9.40;;;3.35;;
46755;SDS011;32506;52.826;-1.192;2023-07-20T07:09:25;4.28;;;2.88;;
46755;SDS011;32506;52.826;-1.192;2023-07-20T07:11:50;4.30;;;3.30;;
46755;SDS011;32506;52.826;-1.192;2023-07-20T07:14:18;4.93;;;2.78;;
46755;SDS011;32506;52.826;-1.192;2023-07-20T07:16:43;4.97;;;3.25;;
46755;SDS011;32506;52.826;-1.192;2023-07-20T07:19:09;6.28;;;2.80;;
46755;SDS011;32506;52.826;-1.192;2023-07-20T07:21:35;8.15;;;3.28;;
46755;SDS011;32506;52.826;-1.192;2023-07-20T07:24:00;5.10;;;2.78;;
46755;SDS011;32506;52.826;-1.192;2023-07-20T07:26:26;5.68;;;3.17;;
46755;SDS011;32506;52.826;-1.192;2023-07-20T07:28:51;6.28;;;3.30;;
46755;SDS011;32506;52.826;-1.192;2023-07-20T07:31:17;6.18;;;2.95;;
46755;SDS011;32506;52.826;-1.192;2023-07-20T07:33:42;4.75;;;2.95;;
46755;SDS011;32506;52.826;-1.192;2023-07-20T07:36:07;4.47;;;2.83;;
46755;SDS011;32506;52.826;-1.192;2023-07-20T07:38:33;5.00;;;3.20;;
46755;SDS011;32506;52.826;-1.192;2023-07-20T07:40:59;4.53;;;3.13;;
46755;SDS011;32506;52.826;-1.192;2023-07-20T07:43:24;4.55;;;3.00;;
46755;SDS011;32506;52.826;-1.192;2023-07-20T07:45:53;4.50;;;2.90;;
46755;SDS011;32506;52.826;-1.192;2023-07-20T07:48:19;7.97;;;3.20;;
46755;SDS011;32506;52.826;-1.192;2023-07-20T07:50:45;6.10;;;3.03;;
46755;SDS011;32506;52.826;-1.192;2023-07-20T07:53:11;6.30;;;3.10;;
46755;SDS011;32506;52.826;-1.192;2023-07-20T07:55:36;5.63;;;2.72;;
46755;SDS011;32506;52.826;-1.192;2023-07-20T07:58:02;4.95;;;3.30;;
46755;SDS011;32506;52.826;-1.192;2023-07-20T08:00:27;4.82;;;3.17;;
46755;SDS011;32506;52.826;-1.192;2023-07-20T08:02:53;5.15;;;3.38;;
46755;SDS011;32506;52.826;-1.192;2023-07-20T08:05:18;4.43;;;3.38;;
46755;SDS011;32506;52.826;-1.192;2023-07-20T08:07:44;8.48;;;3.70;;
46755;SDS011;32506;52.826;-1.192;2023-07-20T08:10:11;5.97;;;3.40;;
46755;SDS011;32506;52.826;-1.192;2023-07-20T08:12:37;5.72;;;3.67;;
46755;SDS011;32506;52.826;-1.192;2023-07-20T08:15:02;6.35;;;3.65;;
46755;SDS011;32506;52.826;-1.192;2023-07-20T08:17:29;5.45;;;3.25;;
46755;SDS011;32506;52.826;-1.192;2023-07-20T08:19:54;6.40;;;3.97;;
46755;SDS011;32506;52.826;-1.192;2023-07-20T08:22:20;6.05;;;3.55;;
46755;SDS011;32506;52.826;-1.192;2023-07-20T08:24:45;7.22;;;3.78;;
46755;SDS011;32506;52.826;-1.192;2023-07-20T08:27:11;6.55;;;3.75;;
46755;SDS011;32506;52.826;-1.192;2023-07-20T08:29:36;5.32;;;3.80;;
46755;SDS011;32506;52.826;-1.192;2023-07-20T08:32:02;6.60;;;4.35;;
46755;SDS011;32506;52.826;-1.192;2023-07-20T08:34:29;5.18;;;3.85;;
46755;SDS011;32506;52.826;-1.192;2023-07-20T08:36:55;7.20;;;4.75;;
46755;SDS011;32506;52.826;-1.192;2023-07-20T08:39:21;6.13;;;4.53;;
46755;SDS011;32506;52.826;-1.192;2023-07-20T08:41:47;6.68;;;4.32;;
46755;SDS011;32506;52.826;-1.192;2023-07-20T08:44:14;5.22;;;4.00;;
46755;SDS011;32506;52.826;-1.192;2023-07-20T08:46:40;7.95;;;4.15;;
46755;SDS011;32506;52.826;-1.192;2023-07-20T08:49:06;8.35;;;4.60;;
46755;SDS011;32506;52.826;-1.192;2023-07-20T08:51:32;6.18;;;4.32;;
46755;SDS011;32506;52.826;-1.192;2023-07-20T08:53:59;5.53;;;4.22;;
46755;SDS011;32506;52.826;-1.192;2023-07-20T08:56:25;6.80;;;4.45;;
46755;SDS011;32506;52.826;-1.192;2023-07-20T08:58:54;7.65;;;4.20;;
46755;SDS011;32506;52.826;-1.192;2023-07-20T09:01:20;7.05;;;3.75;;
46755;SDS011;32506;52.826;-1.192;2023-07-20T09:03:47;6.82;;;4.55;;
46755;SDS011;32506;52.826;-1.192;2023-07-20T09:06:14;6.78;;;4.40;;
46755;SDS011;32506;52.826;-1.192;2023-07-20T09:08:40;6.68;;;4.53;;
46755;SDS011;32506;52.826;-1.192;2023-07-20T09:11:06;4.95;;;3.95;;
46755;SDS011;32506;52.826;-1.192;2023-07-20T09:13:32;6.40;;;4.47;;
46755;SDS011;32506;52.826;-1.192;2023-07-20T09:15:58;5.72;;;4.22;;
46755;SDS011;32506;52.826;-1.192;2023-07-20T09:18:25;5.47;;;4.07;;
46755;SDS011;32506;52.826;-1.192;2023-07-20T09:20:50;6.63;;;4.13;;
46755;SDS011;32506;52.826;-1.192;2023-07-20T09:23:16;8.50;;;4.47;;
46755;SDS011;32506;52.826;-1.192;2023-07-20T09:25:41;7.13;;;4.32;;
46755;SDS011;32506;52.826;-1.192;2023-07-20T09:28:07;6.90;;;4.28;;
46755;SDS011;32506;52.826;-1.192;2023-07-20T09:30:32;7.03;;;4.68;;
46755;SDS011;32506;52.826;-1.192;2023-07-20T09:32:59;7.80;;;4.32;;
46755;SDS011;32506;52.826;-1.192;2023-07-20T09:35:24;9.88;;;4.40;;
46755;SDS011;32506;52.826;-1.192;2023-07-20T09:40:28;6.60;;;3.88;;
46755;SDS011;32506;52.826;-1.192;2023-07-20T09:42:54;9.52;;;4.35;;
46755;SDS011;32506;52.826;-1.192;2023-07-20T09:48:07;6.30;;;3.92;;
46755;SDS011;32506;52.826;-1.192;2023-07-20T09:50:34;4.75;;;4.03;;
46755;SDS011;32506;52.826;-1.192;2023-07-20T09:53:06;5.40;;;4.28;;
46755;SDS011;32506;52.826;-1.192;2023-07-20T09:55:32;5.53;;;4.32;;
46755;SDS011;32506;52.826;-1.192;2023-07-20T09:57:59;7.07;;;4.32;;
46755;SDS011;32506;52.826;-1.192;2023-07-20T10:00:25;7.53;;;4.60;;
46755;SDS011;32506;52.826;-1.192;2023-07-20T10:02:51;6.30;;;4.03;;
46755;SDS011;32506;52.826;-1.192;2023-07-20T10:05:17;7.35;;;4.65;;
46755;SDS011;32506;52.826;-1.192;2023-07-20T10:07:47;7.00;;;4.53;;
46755;SDS011;32506;52.826;-1.192;2023-07-20T10:10:14;6.57;;;5.00;;
46755;SDS011;32506;52.826;-1.192;2023-07-20T10:12:42;5.10;;;3.80;;
46755;SDS011;32506;52.826;-1.192;2023-07-20T10:17:37;6.57;;;4.13;;
46755;SDS011;32506;52.826;-1.192;2023-07-20T10:20:14;6.78;;;4.47;;
46755;SDS011;32506;52.826;-1.192;2023-07-20T10:22:44;8.85;;;5.25;;
46755;SDS011;32506;52.826;-1.192;2023-07-20T10:25:12;8.15;;;4.63;;
46755;SDS011;32506;52.826;-1.192;2023-07-20T10:27:38;8.13;;;5.05;;
46755;SDS011;32506;52.826;-1.192;2023-07-20T10:30:05;7.30;;;4.95;;
46755;SDS011;32506;52.826;-1.192;2023-07-20T10:32:31;7.32;;;4.72;;
46755;SDS011;32506;52.826;-1.192;2023-07-20T10:34:57;6.35;;;4.75;;
46755;SDS011;32506;52.826;-1.192;2023-07-20T10:40:23;6.05;;;4.60;;
46755;SDS011;32506;52.826;-1.192;2023-07-20T10:43:00;8.00;;;5.00;;
46755;SDS011;32506;52.826;-1.192;2023-07-20T10:48:24;7.25;;;5.05;;
46755;SDS011;32506;52.826;-1.192;2023-07-20T10:51:10;5.68;;;4.60;;
46755;SDS011;32506;52.826;-1.192;2023-07-20T10:53:38;8.20;;;4.85;;
46755;SDS011;32506;52.826;-1.192;2023-07-20T10:56:08;7.00;;;5.30;;
46755;SDS011;32506;52.826;-1.192;2023-07-20T10:58:39;6.97;;;5.07;;
46755;SDS011;32506;52.826;-1.192;2023-07-20T11:01:06;6.95;;;5.40;;
46755;SDS011;32506;52.826;-1.192;2023-07-20T11:03:32;6.68;;;4.65;;
46755;SDS011;32506;52.826;-1.192;2023-07-20T11:05:59;8.00;;;5.15;;
46755;SDS011;32506;52.826;-1.192;2023-07-20T11:08:44;7.43;;;5.38;;
46755;SDS011;32506;52.826;-1.192;2023-07-20T11:13:59;10.32;;;5.93;;
46755;SDS011;32506;52.826;-1.192;2023-07-20T11:16:35;10.65;;;6.22;;
46755;SDS011;32506;52.826;-1.192;2023-07-20T11:19:04;7.25;;;5.78;;
46755;SDS011;32506;52.826;-1.192;2023-07-20T11:21:37;7.90;;;5.68;;
46755;SDS011;32506;52.826;-1.192;2023-07-20T11:24:04;8.32;;;5.75;;
46755;SDS011;32506;52.826;-1.192;2023-07-20T11:26:39;7.13;;;5.55;;
46755;SDS011;32506;52.826;-1.192;2023-07-20T11:29:05;8.50;;;5.60;;
46755;SDS011;32506;52.826;-1.192;2023-07-20T11:31:30;8.50;;;5.50;;
46755;SDS011;32506;52.826;-1.192;2023-07-20T11:33:59;8.35;;;5.88;;
46755;SDS011;32506;52.826;-1.192;2023-07-20T11:36:25;8.93;;;6.32;;
46755;SDS011;32506;52.826;-1.192;2023-07-20T11:38:50;12.75;;;6.18;;
46755;SDS011;32506;52.826;-1.192;2023-07-20T11:41:16;7.93;;;6.57;;
46755;SDS011;32506;52.826;-1.192;2023-07-20T11:43:42;7.30;;;5.60;;
46755;SDS011;32506;52.826;-1.192;2023-07-20T11:46:08;7.93;;;5.28;;
46755;SDS011;32506;52.826;-1.192;2023-07-20T11:48:34;7.65;;;6.13;;
46755;SDS011;32506;52.826;-1.192;2023-07-20T11:50:59;8.77;;;5.90;;
46755;SDS011;32506;52.826;-1.192;2023-07-20T11:53:25;7.53;;;5.95;;
46755;SDS011;32506;52.826;-1.192;2023-07-20T11:55:51;6.47;;;5.00;;
46755;SDS011;32506;52.826;-1.192;2023-07-20T11:58:17;7.00;;;5.22;;
46755;SDS011;32506;52.826;-1.192;2023-07-20T12:00:43;7.03;;;5.15;;
46755;SDS011;32506;52.826;-1.192;2023-07-20T12:03:11;7.43;;;5.32;;
46755;SDS011;32506;52.826;-1.192;2023-07-20T12:05:40;6.72;;;5.15;;
46755;SDS011;32506;52.826;-1.192;2023-07-20T12:08:06;6.45;;;5.05;;
46755;SDS011;32506;52.826;-1.192;2023-07-20T12:10:32;7.90;;;4.50;;
46755;SDS011;32506;52.826;-1.192;2023-07-20T12:13:01;6.80;;;5.03;;
46755;SDS011;32506;52.826;-1.192;2023-07-20T12:15:31;6.47;;;4.85;;
46755;SDS011;32506;52.826;-1.192;2023-07-20T12:17:57;6.95;;;4.70;;
46755;SDS011;32506;52.826;-1.192;2023-07-20T12:20:25;5.40;;;4.38;;
46755;SDS011;32506;52.826;-1.192;2023-07-20T12:22:55;6.13;;;4.50;;
46755;SDS011;32506;52.826;-1.192;2023-07-20T12:25:38;5.38;;;4.38;;
46755;SDS011;32506;52.826;-1.192;2023-07-20T12:28:07;5.95;;;4.25;;
46755;SDS011;32506;52.826;-1.192;2023-07-20T12:30:33;5.15;;;4.18;;
46755;SDS011;32506;52.826;-1.192;2023-07-20T12:32:59;5.15;;;4.03;;
46755;SDS011;32506;52.826;-1.192;2023-07-20T12:35:24;4.85;;;4.28;;
46755;SDS011;32506;52.826;-1.192;2023-07-20T12:37:50;6.25;;;4.53;;
46755;SDS011;32506;52.826;-1.192;2023-07-20T12:40:16;5.70;;;3.97;;
46755;SDS011;32506;52.826;-1.192;2023-07-20T12:42:42;5.75;;;4.43;;
46755;SDS011;32506;52.826;-1.192;2023-07-20T12:45:08;5.57;;;4.30;;
46755;SDS011;32506;52.826;-1.192;2023-07-20T12:47:34;5.28;;;4.05;;
46755;SDS011;32506;52.826;-1.192;2023-07-20T12:49:59;5.20;;;4.13;;
46755;SDS011;32506;52.826;-1.192;2023-07-20T12:52:27;5.03;;;3.78;;
46755;SDS011;32506;52.826;-1.192;2023-07-20T12:54:53;6.28;;;4.35;;
46755;SDS011;32506;52.826;-1.192;2023-07-20T12:57:21;6.10;;;4.32;;
46755;SDS011;32506;52.826;-1.192;2023-07-20T12:59:47;5.50;;;4.55;;
46755;SDS011;32506;52.826;-1.192;2023-07-20T13:02:13;5.20;;;4.18;;
46755;SDS011;32506;52.826;-1.192;2023-07-20T13:04:38;6.97;;;4.35;;
46755;SDS011;32506;52.826;-1.192;2023-07-20T13:07:04;5.57;;;4.18;;
46755;SDS011;32506;52.826;-1.192;2023-07-20T13:09:29;6.45;;;4.75;;
46755;SDS011;32506;52.826;-1.192;2023-07-20T13:11:55;6.20;;;4.72;;
46755;SDS011;32506;52.826;-1.192;2023-07-20T13:14:23;5.47;;;4.53;;
46755;SDS011;32506;52.826;-1.192;2023-07-20T13:16:49;7.15;;;4.55;;
46755;SDS011;32506;52.826;-1.192;2023-07-20T13:19:14;5.38;;;4.28;;
46755;SDS011;32506;52.826;-1.192;2023-07-20T13:21:39;5.45;;;4.50;;
46755;SDS011;32506;52.826;-1.192;2023-07-20T13:24:08;5.32;;;4.10;;
46755;SDS011;32506;52.826;-1.192;2023-07-20T13:26:33;4.78;;;4.28;;
46755;SDS011;32506;52.826;-1.192;2023-07-20T13:28:59;5.70;;;4.43;;
46755;SDS011;32506;52.826;-1.192;2023-07-20T13:31:24;4.93;;;4.15;;
46755;SDS011;32506;52.826;-1.192;2023-07-20T13:33:50;5.78;;;4.72;;
46755;SDS011;32506;52.826;-1.192;2023-07-20T13:36:16;5.10;;;4.35;;
46755;SDS011;32506;52.826;-1.192;2023-07-20T13:38:44;6.93;;;4.68;;
46755;SDS011;32506;52.826;-1.192;2023-07-20T13:41:09;5.57;;;4.50;;
46755;SDS011;32506;52.826;-1.192;2023-07-20T13:43:35;6.10;;;4.38;;
46755;SDS011;32506;52.826;-1.192;2023-07-20T13:46:00;7.22;;;4.95;;
46755;SDS011;32506;52.826;-1.192;2023-07-20T13:48:26;5.32;;;4.38;;
46755;SDS011;32506;52.826;-1.192;2023-07-20T13:50:52;5.30;;;4.53;;
46755;SDS011;32506;52.826;-1.192;2023-07-20T13:53:20;4.82;;;4.00;;
46755;SDS011;32506;52.826;-1.192;2023-07-20T13:55:47;5.03;;;3.80;;
46755;SDS011;32506;52.826;-1.192;2023-07-20T13:58:13;4.90;;;4.07;;
46755;SDS011;32506;52.826;-1.192;2023-07-20T14:00:38;4.55;;;3.70;;
46755;SDS011;32506;52.826;-1.192;2023-07-20T14:03:04;4.90;;;3.92;;
46755;SDS011;32506;52.826;-1.192;2023-07-20T14:05:29;5.63;;;4.20;;
46755;SDS011;32506;52.826;-1.192;2023-07-20T14:07:55;4.85;;;3.95;;
46755;SDS011;32506;52.826;-1.192;2023-07-20T14:10:20;5.20;;;4.43;;
46755;SDS011;32506;52.826;-1.192;2023-07-20T14:12:46;6.00;;;4.35;;
46755;SDS011;32506;52.826;-1.192;2023-07-20T14:15:11;5.47;;;4.43;;
46755;SDS011;32506;52.826;-1.192;2023-07-20T14:17:36;5.63;;;4.25;;
46755;SDS011;32506;52.826;-1.192;2023-07-20T14:20:02;5.53;;;4.55;;
46755;SDS011;32506;52.826;-1.192;2023-07-20T14:22:33;6.20;;;4.63;;
46755;SDS011;32506;52.826;-1.192;2023-07-20T14:24:58;6.95;;;4.03;;
46755;SDS011;32506;52.826;-1.192;2023-07-20T14:27:24;6.20;;;4.95;;
46755;SDS011;32506;52.826;-1.192;2023-07-20T14:29:49;6.28;;;4.65;;
46755;SDS011;32506;52.826;-1.192;2023-07-20T14:32:15;5.47;;;4.47;;
46755;SDS011;32506;52.826;-1.192;2023-07-20T14:34:40;5.70;;;4.90;;
46755;SDS011;32506;52.826;-1.192;2023-07-20T14:37:06;6.47;;;4.95;;
46755;SDS011;32506;52.826;-1.192;2023-07-20T14:39:32;5.03;;;4.43;;
46755;SDS011;32506;52.826;-1.192;2023-07-20T14:41:57;5.25;;;4.47;;
46755;SDS011;32506;52.826;-1.192;2023-07-20T14:44:23;5.97;;;4.90;;
46755;SDS011;32506;52.826;-1.192;2023-07-20T14:46:49;5.78;;;5.10;;
46755;SDS011;32506;52.826;-1.192;2023-07-20T14:49:15;5.63;;;4.68;;
46755;SDS011;32506;52.826;-1.192;2023-07-20T14:51:40;6.28;;;4.75;;
46755;SDS011;32506;52.826;-1.192;2023-07-20T14:54:11;6.47;;;4.80;;
46755;SDS011;32506;52.826;-1.192;2023-07-20T14:56:37;5.88;;;5.10;;